sensor_id;sensor_type;location;lat;lon;timestamp;pressure;altitude;pressure_sealevel;temperature;humidity
12799;BME280;19250;42.646;26.980;2023-08-17T00:01:24;98839.19;;;25.48;77.99
12799;BME280;19250;42.646;26.980;2023-08-17T00:03:51;98844.06;;;25.67;77.75
12799;BME280;19250;42.646;26.980;2023-08-17T00:06:18;98845.66;;;25.63;77.86
12799;BME280;19250;42.646;26.980;2023-08-17T00:08:45;98842.50;;;25.76;77.12
12799;BME280;19250;42.646;26.980;2023-08-17T00:11:12;98841.34;;;25.67;77.38
12799;BME280;19250;42.646;26.980;2023-08-17T00:13:39;98838.41;;;25.47;79.04
12799;BME280;19250;42.646;26.980;2023-08-17T00:16:06;98843.50;;;25.65;78.07
12799;BME280;19250;42.646;26.980;2023-08-17T00:18:34;98845.34;;;25.33;79.10
12799;BME280;19250;42.646;26.980;2023-08-17T00:21:01;98850.09;;;25.16;80.89
12799;BME280;19250;42.646;26.980;2023-08-17T00:23:29;98849.72;;;24.85;83.55
12799;BME280;19250;42.646;26.980;2023-08-17T00:25:56;98854.94;;;25.14;82.50
12799;BME280;19250;42.646;26.980;2023-08-17T00:28:23;98853.53;;;25.60;78.86
12799;BME280;19250;42.646;26.980;2023-08-17T00:30:50;98852.59;;;25.76;77.09
12799;BME280;19250;42.646;26.980;2023-08-17T00:33:17;98855.63;;;25.79;76.72
12799;BME280;19250;42.646;26.980;2023-08-17T00:35:45;98853.66;;;25.75;76.57
12799;BME280;19250;42.646;26.980;2023-08-17T00:38:12;98857.22;;;25.75;76.31
12799;BME280;19250;42.646;26.980;2023-08-17T00:40:39;98857.06;;;25.55;78.08
12799;BME280;19250;42.646;26.980;2023-08-17T00:43:06;98853.66;;;25.75;76.25
12799;BME280;19250;42.646;26.980;2023-08-17T00:45:33;98850.91;;;25.16;80.03
12799;BME280;19250;42.646;26.980;2023-08-17T00:48:01;98846.16;;;25.07;81.12
12799;BME280;19250;42.646;26.980;2023-08-17T00:50:28;98841.25;;;24.65;86.21
12799;BME280;19250;42.646;26.980;2023-08-17T00:52:57;98845.06;;;25.08;82.62
12799;BME280;19250;42.646;26.980;2023-08-17T00:55:24;98840.38;;;25.30;81.12
12799;BME280;19250;42.646;26.980;2023-08-17T00:57:51;98837.22;;;25.38;80.37
12799;BME280;19250;42.646;26.980;2023-08-17T01:00:19;98848.84;;;25.28;79.97
12799;BME280;19250;42.646;26.980;2023-08-17T01:02:46;98840.56;;;24.97;82.59
12799;BME280;19250;42.646;26.980;2023-08-17T01:05:13;98843.50;;;24.30;89.02
12799;BME280;19250;42.646;26.980;2023-08-17T01:07:40;98835.09;;;24.53;89.06
12799;BME280;19250;42.646;26.980;2023-08-17T01:10:09;98836.69;;;24.92;86.05
12799;BME280;19250;42.646;26.980;2023-08-17T01:12:38;98835.88;;;24.70;86.13
12799;BME280;19250;42.646;26.980;2023-08-17T01:15:09;98834.44;;;24.84;84.84
12799;BME280;19250;42.646;26.980;2023-08-17T01:17:40;98824.19;;;24.53;87.26
12799;BME280;19250;42.646;26.980;2023-08-17T01:20:09;98821.03;;;24.61;87.88
12799;BME280;19250;42.646;26.980;2023-08-17T01:22:39;98824.47;;;24.73;86.35
12799;BME280;19250;42.646;26.980;2023-08-17T01:25:09;98813.28;;;24.75;86.07
12799;BME280;19250;42.646;26.980;2023-08-17T01:27:36;98816.13;;;24.63;87.24
12799;BME280;19250;42.646;26.980;2023-08-17T01:30:04;98807.28;;;24.95;84.89
12799;BME280;19250;42.646;26.980;2023-08-17T01:32:33;98808.16;;;25.00;84.51
12799;BME280;19250;42.646;26.980;2023-08-17T01:35:04;98812.06;;;24.66;87.34
12799;BME280;19250;42.646;26.980;2023-08-17T01:37:35;98811.88;;;24.72;86.48
12799;BME280;19250;42.646;26.980;2023-08-17T01:40:06;98814.88;;;24.92;85.02
12799;BME280;19250;42.646;26.980;2023-08-17T01:42:34;98812.94;;;24.71;86.16
12799;BME280;19250;42.646;26.980;2023-08-17T01:45:02;98810.22;;;24.71;85.80
12799;BME280;19250;42.646;26.980;2023-08-17T01:47:29;98807.06;;;24.36;90.26
12799;BME280;19250;42.646;26.980;2023-08-17T01:49:56;98809.72;;;24.74;87.07
12799;BME280;19250;42.646;26.980;2023-08-17T01:52:25;98813.84;;;24.77;86.55
12799;BME280;19250;42.646;26.980;2023-08-17T01:54:55;98814.69;;;24.34;89.42
12799;BME280;19250;42.646;26.980;2023-08-17T01:57:22;98816.56;;;24.33;90.88
12799;BME280;19250;42.646;26.980;2023-08-17T01:59:50;98811.28;;;24.27;91.27
12799;BME280;19250;42.646;26.980;2023-08-17T02:02:17;98814.25;;;24.64;88.61
12799;BME280;19250;42.646;26.980;2023-08-17T02:04:44;98807.47;;;24.88;86.16
12799;BME280;19250;42.646;26.980;2023-08-17T02:07:11;98810.59;;;24.80;86.04
12799;BME280;19250;42.646;26.980;2023-08-17T02:09:38;98804.41;;;24.84;85.38
12799;BME280;19250;42.646;26.980;2023-08-17T02:12:05;98810.19;;;24.28;89.86
12799;BME280;19250;42.646;26.980;2023-08-17T02:14:33;98807.59;;;24.00;93.64
12799;BME280;19250;42.646;26.980;2023-08-17T02:17:01;98811.44;;;23.82;95.87
12799;BME280;19250;42.646;26.980;2023-08-17T02:19:28;98809.59;;;23.88;96.59
12799;BME280;19250;42.646;26.980;2023-08-17T02:21:55;98812.25;;;24.37;92.23
12799;BME280;19250;42.646;26.980;2023-08-17T02:24:22;98809.31;;;24.22;92.20
12799;BME280;19250;42.646;26.980;2023-08-17T02:26:49;98806.50;;;24.01;94.00
12799;BME280;19250;42.646;26.980;2023-08-17T02:29:16;98819.81;;;24.52;90.30
12799;BME280;19250;42.646;26.980;2023-08-17T02:31:43;98822.72;;;24.46;89.19
12799;BME280;19250;42.646;26.980;2023-08-17T02:34:11;98822.47;;;24.47;89.95
12799;BME280;19250;42.646;26.980;2023-08-17T02:36:38;98825.06;;;24.59;88.95
12799;BME280;19250;42.646;26.980;2023-08-17T02:39:05;98823.69;;;24.78;86.70
12799;BME280;19250;42.646;26.980;2023-08-17T02:41:32;98835.78;;;24.82;86.16
12799;BME280;19250;42.646;26.980;2023-08-17T02:43:59;98829.63;;;24.75;86.53
12799;BME280;19250;42.646;26.980;2023-08-17T02:46:26;98831.44;;;24.64;86.57
12799;BME280;19250;42.646;26.980;2023-08-17T02:48:53;98838.34;;;24.72;86.67
12799;BME280;19250;42.646;26.980;2023-08-17T02:51:21;98835.72;;;24.60;87.62
12799;BME280;19250;42.646;26.980;2023-08-17T02:53:48;98841.03;;;24.88;85.21
12799;BME280;19250;42.646;26.980;2023-08-17T02:56:15;98831.63;;;24.79;85.46
12799;BME280;19250;42.646;26.980;2023-08-17T02:58:42;98832.22;;;24.81;85.42
12799;BME280;19250;42.646;26.980;2023-08-17T03:01:09;98836.47;;;24.94;84.34
12799;BME280;19250;42.646;26.980;2023-08-17T03:03:36;98845.19;;;24.74;85.86
12799;BME280;19250;42.646;26.980;2023-08-17T03:06:03;98843.03;;;24.76;85.90
12799;BME280;19250;42.646;26.980;2023-08-17T03:08:32;98844.13;;;24.97;84.48
12799;BME280;19250;42.646;26.980;2023-08-17T03:10:58;98838.69;;;24.80;85.45
12799;BME280;19250;42.646;26.980;2023-08-17T03:13:26;98841.50;;;24.64;88.03
12799;BME280;19250;42.646;26.980;2023-08-17T03:15:53;98835.94;;;24.97;85.07
12799;BME280;19250;42.646;26.980;2023-08-17T03:18:20;98841.66;;;24.96;84.50
12799;BME280;19250;42.646;26.980;2023-08-17T03:20:47;98846.88;;;24.80;85.65
12799;BME280;19250;42.646;26.980;2023-08-17T03:23:14;98851.06;;;24.83;85.42
12799;BME280;19250;42.646;26.980;2023-08-17T03:25:43;98841.78;;;24.84;84.88
12799;BME280;19250;42.646;26.980;2023-08-17T03:28:11;98840.56;;;24.97;84.00
12799;BME280;19250;42.646;26.980;2023-08-17T03:30:37;98840.56;;;24.97;83.80
12799;BME280;19250;42.646;26.980;2023-08-17T03:33:04;98840.03;;;24.95;83.55
12799;BME280;19250;42.646;26.980;2023-08-17T03:35:31;98839.03;;;25.06;83.19
12799;BME280;19250;42.646;26.980;2023-08-17T03:37:58;98844.88;;;24.92;83.48
12799;BME280;19250;42.646;26.980;2023-08-17T03:40:25;98847.50;;;25.04;82.72
12799;BME280;19250;42.646;26.980;2023-08-17T03:42:53;98840.94;;;25.05;83.09
12799;BME280;19250;42.646;26.980;2023-08-17T03:45:20;98835.84;;;25.14;82.37
12799;BME280;19250;42.646;26.980;2023-08-17T03:47:47;98839.91;;;25.11;82.35
12799;BME280;19250;42.646;26.980;2023-08-17T03:50:14;98836.59;;;24.82;84.95
12799;BME280;19250;42.646;26.980;2023-08-17T03:52:41;98839.56;;;25.03;83.88
12799;BME280;19250;42.646;26.980;2023-08-17T03:55:09;98835.97;;;24.80;84.92
12799;BME280;19250;42.646;26.980;2023-08-17T03:57:36;98839.16;;;24.72;85.98
12799;BME280;19250;42.646;26.980;2023-08-17T04:00:05;98850.16;;;24.39;89.83
12799;BME280;19250;42.646;26.980;2023-08-17T04:02:32;98840.44;;;24.10;93.18
12799;BME280;19250;42.646;26.980;2023-08-17T04:04:59;98845.13;;;24.69;89.88
12799;BME280;19250;42.646;26.980;2023-08-17T04:07:26;98840.22;;;24.88;87.93
12799;BME280;19250;42.646;26.980;2023-08-17T04:09:53;98840.75;;;25.12;86.00
12799;BME280;19250;42.646;26.980;2023-08-17T04:12:20;98838.22;;;25.32;84.50
12799;BME280;19250;42.646;26.980;2023-08-17T04:14:47;98842.22;;;24.98;85.75
12799;BME280;19250;42.646;26.980;2023-08-17T04:17:15;98842.94;;;24.50;90.74
12799;BME280;19250;42.646;26.980;2023-08-17T04:19:42;98843.78;;;24.50;92.39
12799;BME280;19250;42.646;26.980;2023-08-17T04:22:09;98844.34;;;24.30;92.27
12799;BME280;19250;42.646;26.980;2023-08-17T04:24:36;98840.16;;;24.83;89.43
12799;BME280;19250;42.646;26.980;2023-08-17T04:27:03;98856.13;;;25.23;86.78
12799;BME280;19250;42.646;26.980;2023-08-17T04:29:30;98863.50;;;25.71;80.46
12799;BME280;19250;42.646;26.980;2023-08-17T04:31:57;98862.91;;;26.01;78.58
12799;BME280;19250;42.646;26.980;2023-08-17T04:34:25;98864.97;;;26.15;75.79
12799;BME280;19250;42.646;26.980;2023-08-17T04:36:52;98867.75;;;25.93;75.65
12799;BME280;19250;42.646;26.980;2023-08-17T04:39:19;98863.47;;;26.03;74.00
12799;BME280;19250;42.646;26.980;2023-08-17T04:41:46;98868.03;;;26.24;73.98
12799;BME280;19250;42.646;26.980;2023-08-17T04:44:13;98874.41;;;26.34;72.30
12799;BME280;19250;42.646;26.980;2023-08-17T04:46:40;98868.63;;;26.31;70.37
12799;BME280;19250;42.646;26.980;2023-08-17T04:49:07;98882.41;;;26.46;70.09
12799;BME280;19250;42.646;26.980;2023-08-17T04:51:35;98881.88;;;26.49;68.85
12799;BME280;19250;42.646;26.980;2023-08-17T04:54:02;98878.13;;;26.60;67.94
12799;BME280;19250;42.646;26.980;2023-08-17T04:56:29;98878.13;;;26.60;67.49
12799;BME280;19250;42.646;26.980;2023-08-17T04:58:56;98880.06;;;26.70;67.24
12799;BME280;19250;42.646;26.980;2023-08-17T05:01:23;98878.59;;;26.94;67.10
12799;BME280;19250;42.646;26.980;2023-08-17T05:03:50;98876.16;;;27.08;65.92
12799;BME280;19250;42.646;26.980;2023-08-17T05:06:17;98875.97;;;27.34;64.30
12799;BME280;19250;42.646;26.980;2023-08-17T05:08:46;98872.94;;;27.21;64.44
12799;BME280;19250;42.646;26.980;2023-08-17T05:11:13;98867.56;;;27.51;63.51
12799;BME280;19250;42.646;26.980;2023-08-17T05:13:40;98874.13;;;27.45;63.67
12799;BME280;19250;42.646;26.980;2023-08-17T05:16:06;98866.59;;;27.10;64.09
12799;BME280;19250;42.646;26.980;2023-08-17T05:18:33;98873.47;;;27.18;65.28
12799;BME280;19250;42.646;26.980;2023-08-17T05:21:00;98867.50;;;27.36;64.51
12799;BME280;19250;42.646;26.980;2023-08-17T05:23:27;98869.75;;;27.49;63.63
12799;BME280;19250;42.646;26.980;2023-08-17T05:25:55;98868.91;;;27.58;64.12
12799;BME280;19250;42.646;26.980;2023-08-17T05:28:22;98870.31;;;27.86;62.56
12799;BME280;19250;42.646;26.980;2023-08-17T05:30:49;98869.25;;;28.07;60.46
12799;BME280;19250;42.646;26.980;2023-08-17T05:33:16;98872.53;;;28.20;59.09
12799;BME280;19250;42.646;26.980;2023-08-17T05:35:43;98864.00;;;28.46;57.68
12799;BME280;19250;42.646;26.980;2023-08-17T05:38:10;98857.66;;;28.66;56.25
12799;BME280;19250;42.646;26.980;2023-08-17T05:40:37;98865.22;;;28.94;56.45
12799;BME280;19250;42.646;26.980;2023-08-17T05:43:06;98866.34;;;28.88;55.14
12799;BME280;19250;42.646;26.980;2023-08-17T05:45:32;98858.47;;;28.56;54.10
12799;BME280;19250;42.646;26.980;2023-08-17T05:48:02;98863.72;;;28.53;54.17
12799;BME280;19250;42.646;26.980;2023-08-17T05:50:29;98852.22;;;28.36;55.22
12799;BME280;19250;42.646;26.980;2023-08-17T05:52:56;98856.75;;;28.81;54.07
12799;BME280;19250;42.646;26.980;2023-08-17T05:55:23;98854.63;;;28.57;54.37
12799;BME280;19250;42.646;26.980;2023-08-17T05:57:49;98851.16;;;29.11;52.88
12799;BME280;19250;42.646;26.980;2023-08-17T06:00:18;98850.59;;;29.09;52.46
12799;BME280;19250;42.646;26.980;2023-08-17T06:02:45;98859.06;;;29.28;51.13
12799;BME280;19250;42.646;26.980;2023-08-17T06:05:16;98859.34;;;29.26;51.37
12799;BME280;19250;42.646;26.980;2023-08-17T06:07:43;98867.56;;;29.70;49.82
12799;BME280;19250;42.646;26.980;2023-08-17T06:10:10;98869.28;;;29.61;49.83
12799;BME280;19250;42.646;26.980;2023-08-17T06:12:38;98855.53;;;29.61;49.60
12799;BME280;19250;42.646;26.980;2023-08-17T06:15:05;98853.09;;;29.54;49.51
12799;BME280;19250;42.646;26.980;2023-08-17T06:17:34;98856.66;;;29.60;49.92
12799;BME280;19250;42.646;26.980;2023-08-17T06:20:01;98868.16;;;30.06;48.10
12799;BME280;19250;42.646;26.980;2023-08-17T06:22:28;98862.50;;;30.21;47.91
12799;BME280;19250;42.646;26.980;2023-08-17T06:24:55;98858.50;;;30.08;47.46
12799;BME280;19250;42.646;26.980;2023-08-17T06:27:22;98866.31;;;30.25;47.25
12799;BME280;19250;42.646;26.980;2023-08-17T06:29:49;98867.66;;;30.56;46.71
12799;BME280;19250;42.646;26.980;2023-08-17T06:32:16;98861.81;;;30.63;45.83
12799;BME280;19250;42.646;26.980;2023-08-17T06:34:44;98870.91;;;30.63;44.57
12799;BME280;19250;42.646;26.980;2023-08-17T06:37:11;98866.16;;;30.69;45.21
12799;BME280;19250;42.646;26.980;2023-08-17T06:39:38;98851.47;;;30.55;45.33
12799;BME280;19250;42.646;26.980;2023-08-17T06:42:05;98865.06;;;30.70;44.05
12799;BME280;19250;42.646;26.980;2023-08-17T06:44:32;98849.06;;;30.72;43.75
12799;BME280;19250;42.646;26.980;2023-08-17T06:46:59;98861.16;;;30.47;44.57
12799;BME280;19250;42.646;26.980;2023-08-17T06:49:26;98856.47;;;30.48;44.70
12799;BME280;19250;42.646;26.980;2023-08-17T06:51:54;98860.19;;;30.33;44.86
12799;BME280;19250;42.646;26.980;2023-08-17T06:54:21;98857.06;;;30.45;44.12
12799;BME280;19250;42.646;26.980;2023-08-17T06:56:48;98863.06;;;30.52;45.05
12799;BME280;19250;42.646;26.980;2023-08-17T06:59:15;98863.16;;;30.65;43.69
12799;BME280;19250;42.646;26.980;2023-08-17T07:01:42;98871.34;;;30.47;44.59
12799;BME280;19250;42.646;26.980;2023-08-17T07:04:09;98862.56;;;30.68;43.26
12799;BME280;19250;42.646;26.980;2023-08-17T07:06:37;98860.41;;;30.89;43.13
12799;BME280;19250;42.646;26.980;2023-08-17T07:09:05;98869.03;;;31.06;43.26
12799;BME280;19250;42.646;26.980;2023-08-17T07:11:32;98864.31;;;31.31;42.82
12799;BME280;19250;42.646;26.980;2023-08-17T07:13:59;98865.53;;;31.62;41.42
12799;BME280;19250;42.646;26.980;2023-08-17T07:16:26;98868.69;;;31.88;41.51
12799;BME280;19250;42.646;26.980;2023-08-17T07:18:53;98862.69;;;32.04;40.76
12799;BME280;19250;42.646;26.980;2023-08-17T07:21:20;98867.59;;;32.07;40.23
12799;BME280;19250;42.646;26.980;2023-08-17T07:23:47;98874.38;;;31.77;40.51
12799;BME280;19250;42.646;26.980;2023-08-17T07:26:15;98868.28;;;31.62;40.36
12799;BME280;19250;42.646;26.980;2023-08-17T07:28:44;98869.78;;;31.54;40.22
12799;BME280;19250;42.646;26.980;2023-08-17T07:31:11;98870.47;;;31.41;40.37
12799;BME280;19250;42.646;26.980;2023-08-17T07:33:38;98875.28;;;31.73;40.58
12799;BME280;19250;42.646;26.980;2023-08-17T07:36:05;98878.69;;;31.83;39.79
12799;BME280;19250;42.646;26.980;2023-08-17T07:38:32;98865.81;;;31.79;40.22
12799;BME280;19250;42.646;26.980;2023-08-17T07:40:59;98868.09;;;32.09;40.48
12799;BME280;19250;42.646;26.980;2023-08-17T07:43:27;98872.13;;;32.17;40.15
12799;BME280;19250;42.646;26.980;2023-08-17T07:45:54;98871.16;;;31.89;40.25
12799;BME280;19250;42.646;26.980;2023-08-17T07:48:21;98871.47;;;31.69;40.08
12799;BME280;19250;42.646;26.980;2023-08-17T07:50:48;98872.66;;;31.81;40.99
12799;BME280;19250;42.646;26.980;2023-08-17T07:53:15;98867.88;;;31.87;41.80
12799;BME280;19250;42.646;26.980;2023-08-17T07:55:42;98859.72;;;31.96;40.56
12799;BME280;19250;42.646;26.980;2023-08-17T07:58:09;98864.69;;;31.80;40.77
12799;BME280;19250;42.646;26.980;2023-08-17T08:00:38;98864.47;;;31.76;40.94
12799;BME280;19250;42.646;26.980;2023-08-17T08:03:05;98858.31;;;31.98;40.91
12799;BME280;19250;42.646;26.980;2023-08-17T08:05:31;98853.31;;;32.00;40.91
12799;BME280;19250;42.646;26.980;2023-08-17T08:07:58;98854.97;;;32.33;39.83
12799;BME280;19250;42.646;26.980;2023-08-17T08:10:26;98854.16;;;32.47;39.92
12799;BME280;19250;42.646;26.980;2023-08-17T08:12:53;98850.66;;;31.95;39.47
12799;BME280;19250;42.646;26.980;2023-08-17T08:15:20;98841.88;;;32.39;38.51
12799;BME280;19250;42.646;26.980;2023-08-17T08:17:49;98856.50;;;32.40;38.17
12799;BME280;19250;42.646;26.980;2023-08-17T08:20:16;98840.94;;;32.62;37.64
12799;BME280;19250;42.646;26.980;2023-08-17T08:22:43;98837.00;;;32.91;37.56
12799;BME280;19250;42.646;26.980;2023-08-17T08:25:10;98840.44;;;32.42;37.76
12799;BME280;19250;42.646;26.980;2023-08-17T08:27:37;98849.19;;;33.03;37.60
12799;BME280;19250;42.646;26.980;2023-08-17T08:30:04;98845.81;;;33.56;36.76
12799;BME280;19250;42.646;26.980;2023-08-17T08:32:31;98846.78;;;33.51;36.74
12799;BME280;19250;42.646;26.980;2023-08-17T08:35:00;98844.44;;;33.45;36.92
12799;BME280;19250;42.646;26.980;2023-08-17T08:37:27;98843.47;;;33.13;36.44
12799;BME280;19250;42.646;26.980;2023-08-17T08:39:54;98851.06;;;33.44;37.52
12799;BME280;19250;42.646;26.980;2023-08-17T08:42:22;98850.41;;;33.96;36.04
12799;BME280;19250;42.646;26.980;2023-08-17T08:44:49;98853.91;;;34.32;35.21
12799;BME280;19250;42.646;26.980;2023-08-17T08:47:16;98850.63;;;34.08;35.03
12799;BME280;19250;42.646;26.980;2023-08-17T08:49:46;98858.13;;;33.63;35.78
12799;BME280;19250;42.646;26.980;2023-08-17T08:52:19;98856.69;;;34.10;35.33
12799;BME280;19250;42.646;26.980;2023-08-17T08:54:49;98853.94;;;34.41;34.21
12799;BME280;19250;42.646;26.980;2023-08-17T08:57:16;98859.03;;;34.47;34.09
12799;BME280;19250;42.646;26.980;2023-08-17T08:59:45;98853.50;;;34.47;34.93
12799;BME280;19250;42.646;26.980;2023-08-17T09:02:14;98850.34;;;34.63;33.75
12799;BME280;19250;42.646;26.980;2023-08-17T09:04:41;98849.88;;;35.17;33.17
12799;BME280;19250;42.646;26.980;2023-08-17T09:07:08;98857.09;;;34.79;34.46
12799;BME280;19250;42.646;26.980;2023-08-17T09:09:37;98848.78;;;34.79;33.35
12799;BME280;19250;42.646;26.980;2023-08-17T09:12:05;98848.31;;;34.55;33.62
12799;BME280;19250;42.646;26.980;2023-08-17T09:14:33;98844.06;;;34.49;34.19
12799;BME280;19250;42.646;26.980;2023-08-17T09:17:00;98849.69;;;34.66;33.75
12799;BME280;19250;42.646;26.980;2023-08-17T09:19:27;98847.31;;;34.51;32.26
12799;BME280;19250;42.646;26.980;2023-08-17T09:21:54;98840.13;;;34.80;32.40
12799;BME280;19250;42.646;26.980;2023-08-17T09:24:21;98836.16;;;34.33;33.04
12799;BME280;19250;42.646;26.980;2023-08-17T09:26:50;98839.06;;;34.59;33.37
12799;BME280;19250;42.646;26.980;2023-08-17T09:29:18;98841.59;;;35.51;32.37
12799;BME280;19250;42.646;26.980;2023-08-17T09:31:45;98850.06;;;35.29;32.57
12799;BME280;19250;42.646;26.980;2023-08-17T09:34:14;98853.50;;;35.52;31.66
12799;BME280;19250;42.646;26.980;2023-08-17T09:36:41;98847.53;;;35.02;32.56
12799;BME280;19250;42.646;26.980;2023-08-17T09:39:08;98839.03;;;35.64;32.05
12799;BME280;19250;42.646;26.980;2023-08-17T09:41:38;98839.31;;;36.14;30.92
12799;BME280;19250;42.646;26.980;2023-08-17T09:44:07;98843.75;;;35.89;30.92
12799;BME280;19250;42.646;26.980;2023-08-17T09:46:33;98851.69;;;35.13;31.71
12799;BME280;19250;42.646;26.980;2023-08-17T09:49:01;98841.94;;;34.85;32.67
12799;BME280;19250;42.646;26.980;2023-08-17T09:51:29;98850.22;;;35.41;31.34
12799;BME280;19250;42.646;26.980;2023-08-17T09:53:56;98842.59;;;35.73;31.15
12799;BME280;19250;42.646;26.980;2023-08-17T09:56:23;98829.25;;;36.55;30.43
12799;BME280;19250;42.646;26.980;2023-08-17T09:58:50;98845.53;;;36.02;30.53
12799;BME280;19250;42.646;26.980;2023-08-17T10:01:19;98848.16;;;36.07;30.63
12799;BME280;19250;42.646;26.980;2023-08-17T10:03:48;98843.25;;;35.95;30.10
12799;BME280;19250;42.646;26.980;2023-08-17T10:06:17;98852.72;;;35.86;30.22
12799;BME280;19250;42.646;26.980;2023-08-17T10:08:47;98853.88;;;35.85;30.49
12799;BME280;19250;42.646;26.980;2023-08-17T10:11:16;98842.88;;;36.31;30.31
12799;BME280;19250;42.646;26.980;2023-08-17T10:13:47;98841.66;;;36.58;29.54
12799;BME280;19250;42.646;26.980;2023-08-17T10:16:21;98846.22;;;36.63;29.27
12799;BME280;19250;42.646;26.980;2023-08-17T10:18:50;98854.94;;;37.40;28.88
12799;BME280;19250;42.646;26.980;2023-08-17T10:21:21;98849.22;;;37.66;28.26
12799;BME280;19250;42.646;26.980;2023-08-17T10:23:49;98834.88;;;37.35;28.72
12799;BME280;19250;42.646;26.980;2023-08-17T10:26:16;98835.47;;;36.44;29.50
12799;BME280;19250;42.646;26.980;2023-08-17T10:28:44;98833.09;;;36.72;29.25
12799;BME280;19250;42.646;26.980;2023-08-17T10:31:11;98842.13;;;37.27;29.13
12799;BME280;19250;42.646;26.980;2023-08-17T10:33:39;98840.81;;;38.07;27.91
12799;BME280;19250;42.646;26.980;2023-08-17T10:36:10;98829.22;;;37.52;27.73
12799;BME280;19250;42.646;26.980;2023-08-17T10:38:37;98844.06;;;36.68;28.77
12799;BME280;19250;42.646;26.980;2023-08-17T10:41:07;98837.97;;;36.28;29.42
12799;BME280;19250;42.646;26.980;2023-08-17T10:43:35;98837.56;;;36.55;29.17
12799;BME280;19250;42.646;26.980;2023-08-17T10:46:14;98833.94;;;37.31;28.50
12799;BME280;19250;42.646;26.980;2023-08-17T10:48:44;98826.97;;;37.16;28.48
12799;BME280;19250;42.646;26.980;2023-08-17T10:51:11;98837.41;;;37.28;27.58
12799;BME280;19250;42.646;26.980;2023-08-17T10:53:39;98843.59;;;36.66;27.89
12799;BME280;19250;42.646;26.980;2023-08-17T10:56:10;98841.19;;;36.47;28.58
12799;BME280;19250;42.646;26.980;2023-08-17T10:58:37;98843.53;;;36.28;28.82
12799;BME280;19250;42.646;26.980;2023-08-17T11:01:06;98841.22;;;36.39;28.42
12799;BME280;19250;42.646;26.980;2023-08-17T11:03:33;98843.03;;;36.81;28.57
12799;BME280;19250;42.646;26.980;2023-08-17T11:06:14;98846.44;;;36.87;28.02
12799;BME280;19250;42.646;26.980;2023-08-17T11:08:52;98837.13;;;36.45;28.76
12799;BME280;19250;42.646;26.980;2023-08-17T11:11:20;98826.94;;;35.77;29.21
12799;BME280;19250;42.646;26.980;2023-08-17T11:13:48;98835.25;;;36.95;28.80
12799;BME280;19250;42.646;26.980;2023-08-17T11:16:15;98841.53;;;37.42;27.56
12799;BME280;19250;42.646;26.980;2023-08-17T11:18:44;98837.59;;;38.05;27.05
12799;BME280;19250;42.646;26.980;2023-08-17T11:21:15;98835.47;;;36.90;28.10
12799;BME280;19250;42.646;26.980;2023-08-17T11:23:42;98830.84;;;36.94;28.56
12799;BME280;19250;42.646;26.980;2023-08-17T11:26:09;98837.16;;;37.12;27.83
12799;BME280;19250;42.646;26.980;2023-08-17T11:28:36;98833.94;;;37.01;27.61
12799;BME280;19250;42.646;26.980;2023-08-17T11:31:06;98830.28;;;36.34;28.02
12799;BME280;19250;42.646;26.980;2023-08-17T11:33:34;98830.22;;;36.42;28.09
12799;BME280;19250;42.646;26.980;2023-08-17T11:36:02;98823.53;;;36.43;28.53
12799;BME280;19250;42.646;26.980;2023-08-17T11:38:32;98826.13;;;37.24;27.66
12799;BME280;19250;42.646;26.980;2023-08-17T11:40:59;98839.16;;;38.27;25.99
12799;BME280;19250;42.646;26.980;2023-08-17T11:43:27;98834.59;;;38.67;25.90
12799;BME280;19250;42.646;26.980;2023-08-17T11:45:54;98826.25;;;38.92;25.51
12799;BME280;19250;42.646;26.980;2023-08-17T11:48:21;98825.44;;;39.03;25.82
12799;BME280;19250;42.646;26.980;2023-08-17T11:50:48;98825.06;;;38.11;26.76
12799;BME280;19250;42.646;26.980;2023-08-17T11:53:15;98823.13;;;38.24;26.38
12799;BME280;19250;42.646;26.980;2023-08-17T11:55:44;98816.50;;;38.86;25.37
12799;BME280;19250;42.646;26.980;2023-08-17T11:58:10;98827.91;;;38.81;25.16
12799;BME280;19250;42.646;26.980;2023-08-17T12:00:39;98826.59;;;39.27;24.65
12799;BME280;19250;42.646;26.980;2023-08-17T12:03:07;98826.00;;;39.21;24.88
12799;BME280;19250;42.646;26.980;2023-08-17T12:05:34;98832.25;;;39.82;23.51
12799;BME280;19250;42.646;26.980;2023-08-17T12:08:01;98836.47;;;38.88;24.75
12799;BME280;19250;42.646;26.980;2023-08-17T12:10:29;98824.84;;;37.63;26.29
12799;BME280;19250;42.646;26.980;2023-08-17T12:12:58;98823.50;;;36.98;27.11
12799;BME280;19250;42.646;26.980;2023-08-17T12:15:29;98810.69;;;36.22;27.90
12799;BME280;19250;42.646;26.980;2023-08-17T12:17:58;98766.34;;;35.44;29.10
12799;BME280;19250;42.646;26.980;2023-08-17T12:20:25;98818.56;;;36.20;28.37
12799;BME280;19250;42.646;26.980;2023-08-17T12:22:52;98808.25;;;37.25;27.24
12799;BME280;19250;42.646;26.980;2023-08-17T12:25:20;98807.53;;;37.37;27.04
12799;BME280;19250;42.646;26.980;2023-08-17T12:27:47;98811.78;;;37.34;27.19
12799;BME280;19250;42.646;26.980;2023-08-17T12:30:23;98808.56;;;38.39;25.85
12799;BME280;19250;42.646;26.980;2023-08-17T12:32:51;98814.59;;;37.76;26.24
12799;BME280;19250;42.646;26.980;2023-08-17T12:35:18;98813.47;;;38.09;25.25
12799;BME280;19250;42.646;26.980;2023-08-17T12:37:47;98802.03;;;37.70;25.89
12799;BME280;19250;42.646;26.980;2023-08-17T12:40:15;98796.44;;;37.07;26.59
12799;BME280;19250;42.646;26.980;2023-08-17T12:42:55;98797.19;;;36.49;27.18
12799;BME280;19250;42.646;26.980;2023-08-17T12:45:24;98799.50;;;35.49;28.69
12799;BME280;19250;42.646;26.980;2023-08-17T12:47:51;98801.91;;;36.20;27.52
12799;BME280;19250;42.646;26.980;2023-08-17T12:50:18;98806.66;;;37.66;26.12
12799;BME280;19250;42.646;26.980;2023-08-17T12:52:45;98802.16;;;37.52;25.82